sensor_id;sensor_type;location;lat;lon;timestamp;P1;durP1;ratioP1;P2;durP2;ratioP2
22476;SDS011;65006;51.698;-0.292;2024-02-21T00:01:42;12.70;;;1.88;;
22476;SDS011;65006;51.698;-0.292;2024-02-21T00:04:08;15.07;;;2.20;;
22476;SDS011;65006;51.698;-0.292;2024-02-21T00:06:34;13.63;;;1.83;;
22476;SDS011;65006;51.698;-0.292;2024-02-21T00:09:00;12.93;;;1.52;;
22476;SDS011;65006;51.698;-0.292;2024-02-21T00:11:26;8.85;;;1.65;;
22476;SDS011;65006;51.698;-0.292;2024-02-21T00:13:52;11.50;;;2.28;;
22476;SDS011;65006;51.698;-0.292;2024-02-21T00:16:18;14.63;;;2.17;;
22476;SDS011;65006;51.698;-0.292;2024-02-21T00:18:44;16.23;;;1.92;;
22476;SDS011;65006;51.698;-0.292;2024-02-21T00:21:10;13.45;;;2.60;;
22476;SDS011;65006;51.698;-0.292;2024-02-21T00:23:42;11.73;;;1.90;;
22476;SDS011;65006;51.698;-0.292;2024-02-21T00:26:08;11.60;;;2.20;;
22476;SDS011;65006;51.698;-0.292;2024-02-21T00:28:34;17.60;;;2.10;;
22476;SDS011;65006;51.698;-0.292;2024-02-21T00:31:01;12.55;;;1.45;;
22476;SDS011;65006;51.698;-0.292;2024-02-21T00:33:27;13.65;;;2.65;;
22476;SDS011;65006;51.698;-0.292;2024-02-21T00:35:53;14.23;;;1.90;;
22476;SDS011;65006;51.698;-0.292;2024-02-21T00:38:19;8.85;;;1.55;;
22476;SDS011;65006;51.698;-0.292;2024-02-21T00:40:45;8.80;;;1.80;;
22476;SDS011;65006;51.698;-0.292;2024-02-21T00:43:11;12.63;;;1.83;;
22476;SDS011;65006;51.698;-0.292;2024-02-21T00:45:37;15.90;;;2.50;;
22476;SDS011;65006;51.698;-0.292;2024-02-21T00:48:04;7.47;;;1.95;;
22476;SDS011;65006;51.698;-0.292;2024-02-21T00:50:30;9.48;;;1.83;;
22476;SDS011;65006;51.698;-0.292;2024-02-21T00:52:56;11.43;;;2.38;;
22476;SDS011;65006;51.698;-0.292;2024-02-21T00:55:22;14.68;;;1.85;;
22476;SDS011;65006;51.698;-0.292;2024-02-21T00:57:48;11.35;;;1.98;;
22476;SDS011;65006;51.698;-0.292;2024-02-21T01:00:14;9.05;;;1.60;;
22476;SDS011;65006;51.698;-0.292;2024-02-21T01:02:40;10.90;;;1.77;;
22476;SDS011;65006;51.698;-0.292;2024-02-21T01:05:06;12.20;;;1.90;;
22476;SDS011;65006;51.698;-0.292;2024-02-21T01:07:32;10.55;;;1.80;;
22476;SDS011;65006;51.698;-0.292;2024-02-21T01:09:58;11.68;;;2.25;;
22476;SDS011;65006;51.698;-0.292;2024-02-21T01:12:24;11.20;;;2.00;;
22476;SDS011;65006;51.698;-0.292;2024-02-21T01:14:50;12.25;;;2.35;;
22476;SDS011;65006;51.698;-0.292;2024-02-21T01:17:17;17.25;;;2.72;;
22476;SDS011;65006;51.698;-0.292;2024-02-21T01:19:43;21.33;;;2.55;;
22476;SDS011;65006;51.698;-0.292;2024-02-21T01:22:09;12.52;;;1.92;;
22476;SDS011;65006;51.698;-0.292;2024-02-21T01:24:35;12.07;;;1.42;;
22476;SDS011;65006;51.698;-0.292;2024-02-21T01:27:01;10.52;;;2.25;;
22476;SDS011;65006;51.698;-0.292;2024-02-21T01:29:27;10.63;;;2.03;;
22476;SDS011;65006;51.698;-0.292;2024-02-21T01:31:53;15.25;;;1.90;;
22476;SDS011;65006;51.698;-0.292;2024-02-21T01:34:19;14.90;;;2.47;;
22476;SDS011;65006;51.698;-0.292;2024-02-21T01:36:45;8.82;;;1.90;;
22476;SDS011;65006;51.698;-0.292;2024-02-21T01:39:11;11.13;;;1.63;;
22476;SDS011;65006;51.698;-0.292;2024-02-21T01:41:37;16.60;;;2.20;;
22476;SDS011;65006;51.698;-0.292;2024-02-21T01:44:03;7.40;;;1.60;;
22476;SDS011;65006;51.698;-0.292;2024-02-21T01:46:29;11.45;;;2.00;;
22476;SDS011;65006;51.698;-0.292;2024-02-21T01:48:56;14.35;;;1.98;;
22476;SDS011;65006;51.698;-0.292;2024-02-21T01:51:22;14.20;;;1.67;;
22476;SDS011;65006;51.698;-0.292;2024-02-21T01:53:48;13.02;;;1.60;;
22476;SDS011;65006;51.698;-0.292;2024-02-21T01:56:16;10.98;;;1.77;;
22476;SDS011;65006;51.698;-0.292;2024-02-21T01:58:42;13.77;;;1.92;;
22476;SDS011;65006;51.698;-0.292;2024-02-21T02:01:09;8.10;;;1.73;;
22476;SDS011;65006;51.698;-0.292;2024-02-21T02:06:01;14.40;;;2.85;;
22476;SDS011;65006;51.698;-0.292;2024-02-21T02:08:27;17.38;;;2.75;;
22476;SDS011;65006;51.698;-0.292;2024-02-21T02:10:53;22.77;;;1.88;;
22476;SDS011;65006;51.698;-0.292;2024-02-21T02:13:20;8.57;;;1.65;;
22476;SDS011;65006;51.698;-0.292;2024-02-21T02:15:46;15.18;;;1.92;;
22476;SDS011;65006;51.698;-0.292;2024-02-21T02:20:38;10.15;;;2.88;;
22476;SDS011;65006;51.698;-0.292;2024-02-21T02:23:47;11.82;;;2.22;;
22476;SDS011;65006;51.698;-0.292;2024-02-21T02:25:54;16.55;;;1.90;;
22476;SDS011;65006;51.698;-0.292;2024-02-21T02:28:21;5.97;;;1.38;;
22476;SDS011;65006;51.698;-0.292;2024-02-21T02:30:47;10.75;;;1.83;;
22476;SDS011;65006;51.698;-0.292;2024-02-21T02:33:14;8.93;;;2.13;;
22476;SDS011;65006;51.698;-0.292;2024-02-21T02:35:42;16.60;;;2.63;;
22476;SDS011;65006;51.698;-0.292;2024-02-21T02:38:08;11.35;;;2.28;;
22476;SDS011;65006;51.698;-0.292;2024-02-21T02:40:35;9.35;;;1.60;;
22476;SDS011;65006;51.698;-0.292;2024-02-21T02:43:01;12.70;;;2.13;;
22476;SDS011;65006;51.698;-0.292;2024-02-21T02:45:28;11.60;;;1.70;;
22476;SDS011;65006;51.698;-0.292;2024-02-21T02:47:54;10.63;;;2.17;;
22476;SDS011;65006;51.698;-0.292;2024-02-21T02:50:21;17.67;;;2.03;;
22476;SDS011;65006;51.698;-0.292;2024-02-21T02:52:47;11.15;;;2.25;;
22476;SDS011;65006;51.698;-0.292;2024-02-21T02:55:13;9.50;;;1.58;;
22476;SDS011;65006;51.698;-0.292;2024-02-21T02:57:40;17.13;;;1.65;;
22476;SDS011;65006;51.698;-0.292;2024-02-21T03:00:07;8.27;;;1.55;;
22476;SDS011;65006;51.698;-0.292;2024-02-21T03:02:33;10.77;;;1.77;;
22476;SDS011;65006;51.698;-0.292;2024-02-21T03:05:00;11.40;;;1.77;;
22476;SDS011;65006;51.698;-0.292;2024-02-21T03:07:26;9.95;;;1.83;;
22476;SDS011;65006;51.698;-0.292;2024-02-21T03:09:52;10.40;;;1.80;;
22476;SDS011;65006;51.698;-0.292;2024-02-21T03:12:19;11.50;;;1.67;;
22476;SDS011;65006;51.698;-0.292;2024-02-21T03:14:52;12.13;;;2.17;;
22476;SDS011;65006;51.698;-0.292;2024-02-21T03:17:18;15.48;;;2.00;;
22476;SDS011;65006;51.698;-0.292;2024-02-21T03:19:44;9.82;;;1.80;;
22476;SDS011;65006;51.698;-0.292;2024-02-21T03:22:10;14.93;;;2.35;;
22476;SDS011;65006;51.698;-0.292;2024-02-21T03:24:36;8.75;;;1.77;;
22476;SDS011;65006;51.698;-0.292;2024-02-21T03:27:02;12.65;;;2.17;;
22476;SDS011;65006;51.698;-0.292;2024-02-21T03:29:28;15.77;;;2.35;;
22476;SDS011;65006;51.698;-0.292;2024-02-21T03:31:54;10.65;;;2.03;;
22476;SDS011;65006;51.698;-0.292;2024-02-21T03:34:20;19.10;;;2.25;;
22476;SDS011;65006;51.698;-0.292;2024-02-21T03:36:46;13.63;;;2.60;;
22476;SDS011;65006;51.698;-0.292;2024-02-21T03:39:12;7.80;;;2.42;;
22476;SDS011;65006;51.698;-0.292;2024-02-21T03:41:38;15.52;;;2.20;;
22476;SDS011;65006;51.698;-0.292;2024-02-21T03:44:04;7.43;;;2.13;;
22476;SDS011;65006;51.698;-0.292;2024-02-21T03:46:30;12.35;;;2.83;;
22476;SDS011;65006;51.698;-0.292;2024-02-21T03:48:56;9.85;;;2.90;;
22476;SDS011;65006;51.698;-0.292;2024-02-21T03:51:23;10.65;;;2.90;;
22476;SDS011;65006;51.698;-0.292;2024-02-21T03:53:49;11.45;;;2.50;;
22476;SDS011;65006;51.698;-0.292;2024-02-21T03:56:15;9.52;;;2.58;;
22476;SDS011;65006;51.698;-0.292;2024-02-21T03:58:41;11.90;;;2.83;;
22476;SDS011;65006;51.698;-0.292;2024-02-21T04:01:07;14.80;;;3.55;;
22476;SDS011;65006;51.698;-0.292;2024-02-21T04:03:33;14.73;;;2.25;;
22476;SDS011;65006;51.698;-0.292;2024-02-21T04:05:59;11.52;;;2.97;;
22476;SDS011;65006;51.698;-0.292;2024-02-21T04:08:25;11.98;;;2.42;;
22476;SDS011;65006;51.698;-0.292;2024-02-21T04:10:51;12.52;;;2.25;;
22476;SDS011;65006;51.698;-0.292;2024-02-21T04:13:17;12.98;;;2.67;;
22476;SDS011;65006;51.698;-0.292;2024-02-21T04:15:43;15.13;;;2.35;;
22476;SDS011;65006;51.698;-0.292;2024-02-21T04:18:09;8.25;;;1.98;;
22476;SDS011;65006;51.698;-0.292;2024-02-21T04:20:35;14.55;;;2.15;;
22476;SDS011;65006;51.698;-0.292;2024-02-21T04:23:01;14.15;;;2.55;;
22476;SDS011;65006;51.698;-0.292;2024-02-21T04:25:27;8.10;;;2.20;;
22476;SDS011;65006;51.698;-0.292;2024-02-21T04:27:53;10.85;;;2.30;;
22476;SDS011;65006;51.698;-0.292;2024-02-21T04:30:19;7.43;;;1.77;;
22476;SDS011;65006;51.698;-0.292;2024-02-21T04:32:45;7.22;;;1.98;;
22476;SDS011;65006;51.698;-0.292;2024-02-21T04:35:11;8.13;;;1.70;;
22476;SDS011;65006;51.698;-0.292;2024-02-21T04:37:37;10.07;;;2.17;;
22476;SDS011;65006;51.698;-0.292;2024-02-21T04:40:03;7.50;;;2.10;;
22476;SDS011;65006;51.698;-0.292;2024-02-21T04:42:29;11.27;;;2.63;;
22476;SDS011;65006;51.698;-0.292;2024-02-21T04:44:55;11.35;;;1.73;;
22476;SDS011;65006;51.698;-0.292;2024-02-21T04:47:21;13.63;;;2.10;;
22476;SDS011;65006;51.698;-0.292;2024-02-21T04:49:48;14.70;;;2.13;;
22476;SDS011;65006;51.698;-0.292;2024-02-21T04:52:14;11.38;;;2.08;;
22476;SDS011;65006;51.698;-0.292;2024-02-21T04:54:40;6.97;;;1.67;;
22476;SDS011;65006;51.698;-0.292;2024-02-21T04:57:06;23.50;;;2.13;;
22476;SDS011;65006;51.698;-0.292;2024-02-21T04:59:32;17.40;;;2.10;;
22476;SDS011;65006;51.698;-0.292;2024-02-21T05:02:00;20.00;;;2.33;;
22476;SDS011;65006;51.698;-0.292;2024-02-21T05:04:26;12.27;;;1.52;;
22476;SDS011;65006;51.698;-0.292;2024-02-21T05:06:52;12.18;;;1.88;;
22476;SDS011;65006;51.698;-0.292;2024-02-21T05:09:18;8.10;;;1.83;;
22476;SDS011;65006;51.698;-0.292;2024-02-21T05:11:44;17.13;;;1.80;;
22476;SDS011;65006;51.698;-0.292;2024-02-21T05:14:09;8.88;;;1.40;;
22476;SDS011;65006;51.698;-0.292;2024-02-21T05:16:35;11.63;;;1.50;;
22476;SDS011;65006;51.698;-0.292;2024-02-21T05:19:01;10.73;;;1.67;;
22476;SDS011;65006;51.698;-0.292;2024-02-21T05:21:29;11.88;;;1.70;;
22476;SDS011;65006;51.698;-0.292;2024-02-21T05:23:55;10.15;;;1.63;;
22476;SDS011;65006;51.698;-0.292;2024-02-21T05:26:22;11.15;;;1.50;;
22476;SDS011;65006;51.698;-0.292;2024-02-21T05:28:48;10.60;;;2.33;;
22476;SDS011;65006;51.698;-0.292;2024-02-21T05:31:17;9.30;;;1.83;;
22476;SDS011;65006;51.698;-0.292;2024-02-21T05:33:43;7.97;;;1.67;;
22476;SDS011;65006;51.698;-0.292;2024-02-21T05:36:10;17.90;;;1.42;;
22476;SDS011;65006;51.698;-0.292;2024-02-21T05:38:36;15.13;;;1.50;;
22476;SDS011;65006;51.698;-0.292;2024-02-21T05:41:02;10.00;;;1.42;;
22476;SDS011;65006;51.698;-0.292;2024-02-21T05:43:28;11.00;;;1.67;;
22476;SDS011;65006;51.698;-0.292;2024-02-21T05:45:54;8.25;;;1.45;;
22476;SDS011;65006;51.698;-0.292;2024-02-21T05:48:21;6.15;;;1.75;;
22476;SDS011;65006;51.698;-0.292;2024-02-21T05:50:47;6.75;;;1.80;;
22476;SDS011;65006;51.698;-0.292;2024-02-21T05:53:13;12.13;;;1.65;;
22476;SDS011;65006;51.698;-0.292;2024-02-21T05:55:40;12.23;;;2.25;;
22476;SDS011;65006;51.698;-0.292;2024-02-21T05:58:06;7.57;;;1.60;;
22476;SDS011;65006;51.698;-0.292;2024-02-21T06:00:32;10.70;;;2.42;;
22476;SDS011;65006;51.698;-0.292;2024-02-21T06:02:59;3.00;;;1.13;;
22476;SDS011;65006;51.698;-0.292;2024-02-21T06:05:25;14.40;;;1.90;;
22476;SDS011;65006;51.698;-0.292;2024-02-21T06:07:51;6.15;;;1.33;;
22476;SDS011;65006;51.698;-0.292;2024-02-21T06:10:17;6.15;;;1.40;;
22476;SDS011;65006;51.698;-0.292;2024-02-21T06:12:43;9.73;;;1.40;;
22476;SDS011;65006;51.698;-0.292;2024-02-21T06:15:09;5.68;;;1.52;;
22476;SDS011;65006;51.698;-0.292;2024-02-21T06:17:35;11.52;;;1.23;;
22476;SDS011;65006;51.698;-0.292;2024-02-21T06:20:01;10.73;;;2.05;;
22476;SDS011;65006;51.698;-0.292;2024-02-21T06:22:27;14.40;;;1.70;;
22476;SDS011;65006;51.698;-0.292;2024-02-21T06:24:53;4.25;;;1.20;;
22476;SDS011;65006;51.698;-0.292;2024-02-21T06:27:19;9.20;;;1.40;;
22476;SDS011;65006;51.698;-0.292;2024-02-21T06:29:45;12.02;;;1.75;;
22476;SDS011;65006;51.698;-0.292;2024-02-21T06:32:11;7.25;;;1.35;;
22476;SDS011;65006;51.698;-0.292;2024-02-21T06:34:37;9.45;;;1.52;;
22476;SDS011;65006;51.698;-0.292;2024-02-21T06:37:03;3.88;;;1.60;;
22476;SDS011;65006;51.698;-0.292;2024-02-21T06:39:30;7.85;;;1.50;;
22476;SDS011;65006;51.698;-0.292;2024-02-21T06:41:56;8.07;;;1.55;;
22476;SDS011;65006;51.698;-0.292;2024-02-21T06:44:22;9.52;;;1.60;;
22476;SDS011;65006;51.698;-0.292;2024-02-21T06:46:48;5.15;;;1.20;;
22476;SDS011;65006;51.698;-0.292;2024-02-21T06:49:14;6.43;;;1.40;;
22476;SDS011;65006;51.698;-0.292;2024-02-21T06:51:43;9.80;;;1.92;;
22476;SDS011;65006;51.698;-0.292;2024-02-21T06:54:09;3.67;;;1.23;;
22476;SDS011;65006;51.698;-0.292;2024-02-21T06:56:35;6.43;;;1.50;;
22476;SDS011;65006;51.698;-0.292;2024-02-21T06:59:02;7.38;;;1.55;;
22476;SDS011;65006;51.698;-0.292;2024-02-21T07:01:28;8.88;;;1.52;;
22476;SDS011;65006;51.698;-0.292;2024-02-21T07:03:55;8.25;;;1.48;;
22476;SDS011;65006;51.698;-0.292;2024-02-21T07:06:21;6.95;;;1.17;;
22476;SDS011;65006;51.698;-0.292;2024-02-21T07:08:47;2.60;;;1.17;;
22476;SDS011;65006;51.698;-0.292;2024-02-21T07:11:13;3.92;;;1.48;;
22476;SDS011;65006;51.698;-0.292;2024-02-21T07:13:39;2.65;;;1.30;;
22476;SDS011;65006;51.698;-0.292;2024-02-21T07:16:05;9.02;;;1.40;;
22476;SDS011;65006;51.698;-0.292;2024-02-21T07:20:57;2.50;;;1.30;;
22476;SDS011;65006;51.698;-0.292;2024-02-21T07:23:24;4.45;;;1.17;;
22476;SDS011;65006;51.698;-0.292;2024-02-21T07:25:50;8.70;;;1.10;;
22476;SDS011;65006;51.698;-0.292;2024-02-21T07:28:16;4.85;;;1.60;;
22476;SDS011;65006;51.698;-0.292;2024-02-21T07:30:42;3.33;;;0.85;;
22476;SDS011;65006;51.698;-0.292;2024-02-21T07:33:08;9.90;;;1.48;;
22476;SDS011;65006;51.698;-0.292;2024-02-21T07:35:34;4.20;;;1.00;;
22476;SDS011;65006;51.698;-0.292;2024-02-21T07:38:03;4.70;;;1.58;;
22476;SDS011;65006;51.698;-0.292;2024-02-21T07:40:30;4.30;;;1.17;;
22476;SDS011;65006;51.698;-0.292;2024-02-21T07:42:56;3.35;;;1.15;;
22476;SDS011;65006;51.698;-0.292;2024-02-21T07:45:22;3.40;;;0.80;;
22476;SDS011;65006;51.698;-0.292;2024-02-21T07:47:49;2.47;;;1.10;;
22476;SDS011;65006;51.698;-0.292;2024-02-21T07:50:16;7.07;;;0.90;;
22476;SDS011;65006;51.698;-0.292;2024-02-21T07:52:43;3.58;;;1.10;;
22476;SDS011;65006;51.698;-0.292;2024-02-21T07:55:09;4.43;;;1.17;;
22476;SDS011;65006;51.698;-0.292;2024-02-21T07:57:37;4.88;;;1.05;;
22476;SDS011;65006;51.698;-0.292;2024-02-21T08:00:04;2.53;;;1.30;;
22476;SDS011;65006;51.698;-0.292;2024-02-21T08:02:30;2.03;;;1.17;;
22476;SDS011;65006;51.698;-0.292;2024-02-21T08:04:56;5.38;;;0.93;;
22476;SDS011;65006;51.698;-0.292;2024-02-21T08:07:22;6.50;;;1.48;;
22476;SDS011;65006;51.698;-0.292;2024-02-21T08:09:48;9.20;;;1.25;;
22476;SDS011;65006;51.698;-0.292;2024-02-21T08:12:14;7.28;;;1.45;;
22476;SDS011;65006;51.698;-0.292;2024-02-21T08:14:40;10.27;;;1.25;;
22476;SDS011;65006;51.698;-0.292;2024-02-21T08:17:06;8.40;;;1.85;;
22476;SDS011;65006;51.698;-0.292;2024-02-21T08:19:32;4.00;;;1.20;;
22476;SDS011;65006;51.698;-0.292;2024-02-21T08:21:58;3.05;;;1.10;;
22476;SDS011;65006;51.698;-0.292;2024-02-21T08:24:25;2.05;;;1.13;;
22476;SDS011;65006;51.698;-0.292;2024-02-21T08:26:52;4.28;;;1.17;;
22476;SDS011;65006;51.698;-0.292;2024-02-21T08:29:18;7.18;;;1.40;;
22476;SDS011;65006;51.698;-0.292;2024-02-21T08:31:44;6.20;;;1.13;;
22476;SDS011;65006;51.698;-0.292;2024-02-21T08:34:10;7.57;;;1.27;;
22476;SDS011;65006;51.698;-0.292;2024-02-21T08:36:38;5.25;;;1.50;;
22476;SDS011;65006;51.698;-0.292;2024-02-21T08:39:04;4.28;;;1.10;;
22476;SDS011;65006;51.698;-0.292;2024-02-21T08:41:33;3.13;;;0.93;;
22476;SDS011;65006;51.698;-0.292;2024-02-21T08:43:59;6.00;;;1.33;;
22476;SDS011;65006;51.698;-0.292;2024-02-21T08:46:26;3.63;;;1.45;;
22476;SDS011;65006;51.698;-0.292;2024-02-21T08:48:54;10.20;;;1.17;;
22476;SDS011;65006;51.698;-0.292;2024-02-21T08:51:20;4.55;;;0.90;;
22476;SDS011;65006;51.698;-0.292;2024-02-21T08:53:47;7.38;;;1.45;;
22476;SDS011;65006;51.698;-0.292;2024-02-21T08:56:14;8.68;;;1.42;;
22476;SDS011;65006;51.698;-0.292;2024-02-21T08:58:40;4.78;;;1.10;;
22476;SDS011;65006;51.698;-0.292;2024-02-21T09:01:07;5.43;;;0.98;;
22476;SDS011;65006;51.698;-0.292;2024-02-21T09:03:37;3.45;;;1.15;;
22476;SDS011;65006;51.698;-0.292;2024-02-21T09:06:04;4.63;;;1.33;;
22476;SDS011;65006;51.698;-0.292;2024-02-21T09:10:56;6.03;;;1.58;;
22476;SDS011;65006;51.698;-0.292;2024-02-21T09:13:22;12.10;;;1.40;;
22476;SDS011;65006;51.698;-0.292;2024-02-21T09:15:49;3.13;;;0.90;;
22476;SDS011;65006;51.698;-0.292;2024-02-21T09:18:15;3.42;;;0.90;;
22476;SDS011;65006;51.698;-0.292;2024-02-21T09:20:44;6.28;;;1.83;;
22476;SDS011;65006;51.698;-0.292;2024-02-21T09:23:10;5.07;;;0.98;;
22476;SDS011;65006;51.698;-0.292;2024-02-21T09:25:37;2.33;;;1.02;;
22476;SDS011;65006;51.698;-0.292;2024-02-21T09:28:05;3.88;;;0.82;;
22476;SDS011;65006;51.698;-0.292;2024-02-21T09:30:34;2.35;;;1.25;;
22476;SDS011;65006;51.698;-0.292;2024-02-21T09:33:00;3.50;;;1.00;;
22476;SDS011;65006;51.698;-0.292;2024-02-21T09:37:53;3.40;;;0.77;;
22476;SDS011;65006;51.698;-0.292;2024-02-21T09:40:19;9.07;;;1.05;;
22476;SDS011;65006;51.698;-0.292;2024-02-21T09:42:46;4.75;;;0.73;;
22476;SDS011;65006;51.698;-0.292;2024-02-21T09:45:19;5.05;;;0.70;;
22476;SDS011;65006;51.698;-0.292;2024-02-21T09:50:43;2.45;;;0.70;;
22476;SDS011;65006;51.698;-0.292;2024-02-21T09:53:09;2.63;;;0.80;;
22476;SDS011;65006;51.698;-0.292;2024-02-21T09:55:38;3.00;;;0.80;;
22476;SDS011;65006;51.698;-0.292;2024-02-21T09:58:06;3.08;;;0.82;;
22476;SDS011;65006;51.698;-0.292;2024-02-21T10:00:33;3.55;;;0.88;;
22476;SDS011;65006;51.698;-0.292;2024-02-21T10:02:59;1.90;;;0.70;;
22476;SDS011;65006;51.698;-0.292;2024-02-21T10:05:25;1.42;;;0.63;;
22476;SDS011;65006;51.698;-0.292;2024-02-21T10:07:52;2.88;;;0.65;;
22476;SDS011;65006;51.698;-0.292;2024-02-21T10:10:19;4.32;;;1.00;;
22476;SDS011;65006;51.698;-0.292;2024-02-21T10:12:53;1.27;;;0.75;;
22476;SDS011;65006;51.698;-0.292;2024-02-21T10:15:23;7.68;;;1.02;;
22476;SDS011;65006;51.698;-0.292;2024-02-21T10:20:15;4.03;;;0.70;;
22476;SDS011;65006;51.698;-0.292;2024-02-21T10:22:41;2.42;;;0.88;;
22476;SDS011;65006;51.698;-0.292;2024-02-21T10:27:33;1.73;;;0.60;;
22476;SDS011;65006;51.698;-0.292;2024-02-21T10:30:00;5.10;;;0.90;;
22476;SDS011;65006;51.698;-0.292;2024-02-21T10:32:26;7.15;;;0.93;;
22476;SDS011;65006;51.698;-0.292;2024-02-21T10:35:00;3.03;;;0.80;;
22476;SDS011;65006;51.698;-0.292;2024-02-21T10:37:26;3.90;;;1.02;;
22476;SDS011;65006;51.698;-0.292;2024-02-21T10:39:53;3.65;;;0.80;;
22476;SDS011;65006;51.698;-0.292;2024-02-21T10:42:21;2.80;;;0.90;;
22476;SDS011;65006;51.698;-0.292;2024-02-21T10:44:47;3.55;;;0.70;;
22476;SDS011;65006;51.698;-0.292;2024-02-21T10:47:16;1.13;;;0.47;;
22476;SDS011;65006;51.698;-0.292;2024-02-21T10:49:46;3.75;;;0.68;;
22476;SDS011;65006;51.698;-0.292;2024-02-21T10:57:21;0.82;;;0.70;;
22476;SDS011;65006;51.698;-0.292;2024-02-21T10:59:48;1.02;;;0.55;;
22476;SDS011;65006;51.698;-0.292;2024-02-21T11:04:40;1.60;;;0.50;;
22476;SDS011;65006;51.698;-0.292;2024-02-21T11:07:06;1.38;;;0.50;;
22476;SDS011;65006;51.698;-0.292;2024-02-21T11:09:33;2.22;;;0.40;;
22476;SDS011;65006;51.698;-0.292;2024-02-21T11:12:01;1.92;;;0.65;;
22476;SDS011;65006;51.698;-0.292;2024-02-21T11:14:28;3.53;;;0.55;;
22476;SDS011;65006;51.698;-0.292;2024-02-21T11:16:57;4.53;;;0.82;;
22476;SDS011;65006;51.698;-0.292;2024-02-21T11:19:27;0.60;;;0.50;;
22476;SDS011;65006;51.698;-0.292;2024-02-21T11:21:54;1.90;;;0.52;;
22476;SDS011;65006;51.698;-0.292;2024-02-21T11:26:53;3.13;;;1.10;;
22476;SDS011;65006;51.698;-0.292;2024-02-21T11:29:23;2.67;;;0.85;;
22476;SDS011;65006;51.698;-0.292;2024-02-21T11:31:52;0.95;;;0.75;;
22476;SDS011;65006;51.698;-0.292;2024-02-21T11:34:19;1.60;;;0.60;;
22476;SDS011;65006;51.698;-0.292;2024-02-21T11:36:48;2.33;;;0.50;;
22476;SDS011;65006;51.698;-0.292;2024-02-21T11:39:22;1.45;;;0.70;;
22476;SDS011;65006;51.698;-0.292;2024-02-21T11:44:45;3.83;;;0.40;;
22476;SDS011;65006;51.698;-0.292;2024-02-21T11:47:11;6.15;;;0.80;;
22476;SDS011;65006;51.698;-0.292;2024-02-21T11:49:38;4.65;;;0.57;;
22476;SDS011;65006;51.698;-0.292;2024-02-21T11:52:07;0.80;;;0.38;;
22476;SDS011;65006;51.698;-0.292;2024-02-21T11:54:33;2.15;;;0.57;;
22476;SDS011;65006;51.698;-0.292;2024-02-21T11:56:59;1.30;;;0.30;;
22476;SDS011;65006;51.698;-0.292;2024-02-21T11:59:26;1.17;;;0.60;;
22476;SDS011;65006;51.698;-0.292;2024-02-21T12:01:52;1.42;;;0.50;;
22476;SDS011;65006;51.698;-0.292;2024-02-21T12:06:45;4.35;;;0.70;;
22476;SDS011;65006;51.698;-0.292;2024-02-21T12:09:14;1.85;;;0.38;;
22476;SDS011;65006;51.698;-0.292;2024-02-21T12:11:45;3.20;;;0.52;;
22476;SDS011;65006;51.698;-0.292;2024-02-21T12:14:15;2.33;;;0.50;;
22476;SDS011;65006;51.698;-0.292;2024-02-21T12:16:42;2.92;;;0.52;;
22476;SDS011;65006;51.698;-0.292;2024-02-21T12:19:12;2.15;;;0.20;;
22476;SDS011;65006;51.698;-0.292;2024-02-21T12:21:39;2.97;;;0.52;;
22476;SDS011;65006;51.698;-0.292;2024-02-21T12:26:31;1.85;;;0.40;;
22476;SDS011;65006;51.698;-0.292;2024-02-21T12:28:57;4.75;;;0.50;;
22476;SDS011;65006;51.698;-0.292;2024-02-21T12:31:23;1.30;;;0.38;;
22476;SDS011;65006;51.698;-0.292;2024-02-21T12:33:49;0.52;;;0.30;;
22476;SDS011;65006;51.698;-0.292;2024-02-21T12:36:17;1.17;;;0.50;;
22476;SDS011;65006;51.698;-0.292;2024-02-21T12:38:44;2.75;;;0.28;;
22476;SDS011;65006;51.698;-0.292;2024-02-21T12:41:11;0.63;;;0.20;;
22476;SDS011;65006;51.698;-0.292;2024-02-21T12:46:04;1.85;;;0.30;;
22476;SDS011;65006;51.698;-0.292;2024-02-21T12:48:32;0.65;;;0.32;;
22476;SDS011;65006;51.698;-0.292;2024-02-21T12:50:58;2.72;;;0.52;;
22476;SDS011;65006;51.698;-0.292;2024-02-21T12:53:24;1.83;;;0.40;;
22476;SDS011;65006;51.698;-0.292;2024-02-21T12:55:50;1.83;;;0.30;;
22476;SDS011;65006;51.698;-0.292;2024-02-21T12:58:17;1.77;;;0.30;;
22476;SDS011;65006;51.698;-0.292;2024-02-21T13:00:43;1.17;;;0.40;;
22476;SDS011;65006;51.698;-0.292;2024-02-21T13:05:38;0.40;;;0.40;;
22476;SDS011;65006;51.698;-0.292;2024-02-21T13:08:08;1.85;;;0.30;;
22476;SDS011;65006;51.698;-0.292;2024-02-21T13:10:34;1.45;;;0.47;;
22476;SDS011;65006;51.698;-0.292;2024-02-21T13:13:00;3.25;;;0.47;;
22476;SDS011;65006;51.698;-0.292;2024-02-21T13:15:27;3.30;;;0.40;;
22476;SDS011;65006;51.698;-0.292;2024-02-21T13:17:53;1.20;;;0.35;;
22476;SDS011;65006;51.698;-0.292;2024-02-21T13:20:19;1.00;;;0.40;;
22476;SDS011;65006;51.698;-0.292;2024-02-21T13:25:12;1.25;;;0.40;;
22476;SDS011;65006;51.698;-0.292;2024-02-21T13:27:43;1.52;;;0.60;;
22476;SDS011;65006;51.698;-0.292;2024-02-21T13:30:09;2.78;;;0.52;;
22476;SDS011;65006;51.698;-0.292;2024-02-21T13:32:35;0.82;;;0.40;;
22476;SDS011;65006;51.698;-0.292;2024-02-21T13:35:02;0.85;;;0.40;;
22476;SDS011;65006;51.698;-0.292;2024-02-21T13:37:28;1.58;;;0.52;;
22476;SDS011;65006;51.698;-0.292;2024-02-21T13:39:54;1.45;;;0.90;;
22476;SDS011;65006;51.698;-0.292;2024-02-21T13:42:20;4.00;;;0.40;;
22476;SDS011;65006;51.698;-0.292;2024-02-21T13:44:47;1.83;;;0.45;;
22476;SDS011;65006;51.698;-0.292;2024-02-21T13:47:16;1.02;;;0.55;;
22476;SDS011;65006;51.698;-0.292;2024-02-21T13:49:42;2.33;;;0.50;;
22476;SDS011;65006;51.698;-0.292;2024-02-21T13:52:08;3.75;;;0.60;;
22476;SDS011;65006;51.698;-0.292;2024-02-21T13:54:34;1.50;;;0.70;;
22476;SDS011;65006;51.698;-0.292;2024-02-21T13:57:00;0.52;;;0.50;;
22476;SDS011;65006;51.698;-0.292;2024-02-21T13:59:27;3.28;;;0.60;;
22476;SDS011;65006;51.698;-0.292;2024-02-21T14:01:53;1.40;;;0.68;;
22476;SDS011;65006;51.698;-0.292;2024-02-21T14:04:19;0.60;;;0.50;;
22476;SDS011;65006;51.698;-0.292;2024-02-21T14:06:46;0.95;;;0.43;;
22476;SDS011;65006;51.698;-0.292;2024-02-21T14:09:12;3.20;;;0.55;;
22476;SDS011;65006;51.698;-0.292;2024-02-21T14:11:38;2.92;;;0.40;;
22476;SDS011;65006;51.698;-0.292;2024-02-21T14:14:06;2.42;;;0.43;;
22476;SDS011;65006;51.698;-0.292;2024-02-21T14:16:32;3.88;;;1.85;;
22476;SDS011;65006;51.698;-0.292;2024-02-21T14:18:58;2.15;;;0.22;;
22476;SDS011;65006;51.698;-0.292;2024-02-21T14:21:25;2.60;;;0.30;;
22476;SDS011;65006;51.698;-0.292;2024-02-21T14:23:51;3.33;;;0.52;;
22476;SDS011;65006;51.698;-0.292;2024-02-21T14:26:18;4.57;;;0.35;;
22476;SDS011;65006;51.698;-0.292;2024-02-21T14:28:44;2.25;;;0.40;;
22476;SDS011;65006;51.698;-0.292;2024-02-21T14:31:10;0.30;;;0.20;;
22476;SDS011;65006;51.698;-0.292;2024-02-21T14:33:37;1.60;;;0.30;;
22476;SDS011;65006;51.698;-0.292;2024-02-21T14:36:03;0.63;;;0.25;;
22476;SDS011;65006;51.698;-0.292;2024-02-21T14:38:29;1.38;;;0.40;;
22476;SDS011;65006;51.698;-0.292;2024-02-21T14:40:55;1.65;;;0.65;;
22476;SDS011;65006;51.698;-0.292;2024-02-21T14:43:21;0.30;;;0.30;;
22476;SDS011;65006;51.698;-0.292;2024-02-21T14:45:47;1.92;;;0.60;;
22476;SDS011;65006;51.698;-0.292;2024-02-21T14:48:14;0.32;;;0.30;;
22476;SDS011;65006;51.698;-0.292;2024-02-21T14:50:40;1.35;;;0.52;;
22476;SDS011;65006;51.698;-0.292;2024-02-21T14:53:07;2.80;;;0.40;;
22476;SDS011;65006;51.698;-0.292;2024-02-21T14:55:33;1.73;;;0.60;;
22476;SDS011;65006;51.698;-0.292;2024-02-21T14:57:59;0.60;;;0.50;;
22476;SDS011;65006;51.698;-0.292;2024-02-21T15:00:26;1.35;;;0.30;;
22476;SDS011;65006;51.698;-0.292;2024-02-21T15:02:59;0.60;;;0.25;;
22476;SDS011;65006;51.698;-0.292;2024-02-21T15:05:25;2.60;;;0.50;;
22476;SDS011;65006;51.698;-0.292;2024-02-21T15:07:51;0.95;;;0.30;;
22476;SDS011;65006;51.698;-0.292;2024-02-21T15:10:17;2.00;;;0.40;;
22476;SDS011;65006;51.698;-0.292;2024-02-21T15:12:46;3.70;;;0.30;;